sensor_id;sensor_type;location;lat;lon;timestamp;P1;durP1;ratioP1;P2;durP2;ratioP2
40515;SDS011;26216;53.724;9.898;2022-08-03T00:00:45;1.70;;;1.60;;
40515;SDS011;26216;53.724;9.898;2022-08-03T00:03:11;2.65;;;1.60;;
40515;SDS011;26216;53.724;9.898;2022-08-03T00:05:37;1.38;;;1.27;;
40515;SDS011;26216;53.724;9.898;2022-08-03T00:08:03;1.63;;;1.40;;
40515;SDS011;26216;53.724;9.898;2022-08-03T00:10:29;2.15;;;1.95;;
40515;SDS011;26216;53.724;9.898;2022-08-03T00:12:55;1.75;;;1.40;;
40515;SDS011;26216;53.724;9.898;2022-08-03T00:15:21;2.10;;;1.80;;
40515;SDS011;26216;53.724;9.898;2022-08-03T00:17:47;1.77;;;1.20;;
40515;SDS011;26216;53.724;9.898;2022-08-03T00:20:13;3.00;;;2.17;;
40515;SDS011;26216;53.724;9.898;2022-08-03T00:22:39;2.22;;;1.60;;
40515;SDS011;26216;53.724;9.898;2022-08-03T00:25:05;2.38;;;1.50;;
40515;SDS011;26216;53.724;9.898;2022-08-03T00:27:31;2.10;;;1.73;;
40515;SDS011;26216;53.724;9.898;2022-08-03T00:29:57;2.08;;;1.88;;
40515;SDS011;26216;53.724;9.898;2022-08-03T00:32:23;2.33;;;1.60;;
40515;SDS011;26216;53.724;9.898;2022-08-03T00:34:49;3.22;;;1.95;;
40515;SDS011;26216;53.724;9.898;2022-08-03T00:37:15;2.60;;;1.98;;
40515;SDS011;26216;53.724;9.898;2022-08-03T00:39:41;2.38;;;1.80;;
40515;SDS011;26216;53.724;9.898;2022-08-03T00:42:09;2.00;;;1.80;;
40515;SDS011;26216;53.724;9.898;2022-08-03T00:44:38;2.65;;;1.92;;
40515;SDS011;26216;53.724;9.898;2022-08-03T00:47:06;2.90;;;1.80;;
40515;SDS011;26216;53.724;9.898;2022-08-03T00:49:32;2.78;;;2.10;;
40515;SDS011;26216;53.724;9.898;2022-08-03T00:51:59;3.65;;;1.90;;
40515;SDS011;26216;53.724;9.898;2022-08-03T00:54:25;2.58;;;2.00;;
40515;SDS011;26216;53.724;9.898;2022-08-03T00:56:52;2.15;;;1.90;;
40515;SDS011;26216;53.724;9.898;2022-08-03T00:59:17;3.65;;;2.00;;
40515;SDS011;26216;53.724;9.898;2022-08-03T01:01:43;2.42;;;2.00;;
40515;SDS011;26216;53.724;9.898;2022-08-03T01:04:09;3.38;;;2.20;;
40515;SDS011;26216;53.724;9.898;2022-08-03T01:06:40;2.30;;;1.85;;
40515;SDS011;26216;53.724;9.898;2022-08-03T01:09:29;2.83;;;2.13;;
40515;SDS011;26216;53.724;9.898;2022-08-03T01:12:21;3.03;;;2.17;;
40515;SDS011;26216;53.724;9.898;2022-08-03T01:20:23;2.88;;;2.25;;
40515;SDS011;26216;53.724;9.898;2022-08-03T01:23:10;2.75;;;2.20;;
40515;SDS011;26216;53.724;9.898;2022-08-03T01:29:07;2.63;;;2.05;;
40515;SDS011;26216;53.724;9.898;2022-08-03T01:32:00;2.65;;;2.13;;
40515;SDS011;26216;53.724;9.898;2022-08-03T01:34:33;3.40;;;2.33;;
40515;SDS011;26216;53.724;9.898;2022-08-03T01:37:05;3.05;;;2.50;;
40515;SDS011;26216;53.724;9.898;2022-08-03T01:39:33;3.00;;;2.45;;
40515;SDS011;26216;53.724;9.898;2022-08-03T01:42:03;2.38;;;2.10;;
40515;SDS011;26216;53.724;9.898;2022-08-03T01:44:33;2.30;;;2.10;;
40515;SDS011;26216;53.724;9.898;2022-08-03T01:47:02;2.92;;;2.15;;
40515;SDS011;26216;53.724;9.898;2022-08-03T01:49:30;3.35;;;2.45;;
40515;SDS011;26216;53.724;9.898;2022-08-03T01:52:01;2.90;;;2.00;;
40515;SDS011;26216;53.724;9.898;2022-08-03T01:54:29;3.03;;;2.42;;
40515;SDS011;26216;53.724;9.898;2022-08-03T01:56:56;3.08;;;2.45;;
40515;SDS011;26216;53.724;9.898;2022-08-03T01:59:24;3.15;;;2.38;;
40515;SDS011;26216;53.724;9.898;2022-08-03T02:01:51;3.00;;;2.47;;
40515;SDS011;26216;53.724;9.898;2022-08-03T02:04:18;3.03;;;2.40;;
40515;SDS011;26216;53.724;9.898;2022-08-03T02:06:46;2.45;;;2.15;;
40515;SDS011;26216;53.724;9.898;2022-08-03T02:09:14;2.95;;;2.42;;
40515;SDS011;26216;53.724;9.898;2022-08-03T02:11:41;3.05;;;2.30;;
40515;SDS011;26216;53.724;9.898;2022-08-03T02:14:09;2.88;;;2.20;;
40515;SDS011;26216;53.724;9.898;2022-08-03T02:16:35;2.67;;;1.98;;
40515;SDS011;26216;53.724;9.898;2022-08-03T02:19:03;3.25;;;2.40;;
40515;SDS011;26216;53.724;9.898;2022-08-03T02:21:31;2.40;;;1.80;;
40515;SDS011;26216;53.724;9.898;2022-08-03T02:24:01;2.63;;;2.17;;
40515;SDS011;26216;53.724;9.898;2022-08-03T02:26:29;2.78;;;2.33;;
40515;SDS011;26216;53.724;9.898;2022-08-03T02:28:56;3.10;;;2.20;;
40515;SDS011;26216;53.724;9.898;2022-08-03T02:31:27;2.80;;;2.40;;
40515;SDS011;26216;53.724;9.898;2022-08-03T02:33:59;2.25;;;1.80;;
40515;SDS011;26216;53.724;9.898;2022-08-03T02:36:27;2.67;;;2.08;;
40515;SDS011;26216;53.724;9.898;2022-08-03T02:38:56;2.53;;;2.13;;
40515;SDS011;26216;53.724;9.898;2022-08-03T02:41:31;2.40;;;2.17;;
40515;SDS011;26216;53.724;9.898;2022-08-03T02:44:01;2.47;;;2.10;;
40515;SDS011;26216;53.724;9.898;2022-08-03T02:46:33;3.25;;;2.05;;
40515;SDS011;26216;53.724;9.898;2022-08-03T02:49:02;2.65;;;2.30;;
40515;SDS011;26216;53.724;9.898;2022-08-03T02:51:33;2.47;;;2.10;;
40515;SDS011;26216;53.724;9.898;2022-08-03T02:54:02;2.40;;;2.08;;
40515;SDS011;26216;53.724;9.898;2022-08-03T02:56:29;2.78;;;2.03;;
40515;SDS011;26216;53.724;9.898;2022-08-03T02:58:56;2.28;;;2.00;;
40515;SDS011;26216;53.724;9.898;2022-08-03T03:01:24;2.25;;;2.05;;
40515;SDS011;26216;53.724;9.898;2022-08-03T03:03:52;3.83;;;2.17;;
40515;SDS011;26216;53.724;9.898;2022-08-03T03:06:20;3.15;;;2.30;;
40515;SDS011;26216;53.724;9.898;2022-08-03T03:08:48;2.15;;;1.95;;
40515;SDS011;26216;53.724;9.898;2022-08-03T03:11:16;3.13;;;2.33;;
40515;SDS011;26216;53.724;9.898;2022-08-03T03:13:43;2.60;;;2.38;;
40515;SDS011;26216;53.724;9.898;2022-08-03T03:16:11;1.98;;;1.77;;
40515;SDS011;26216;53.724;9.898;2022-08-03T03:18:38;3.83;;;2.63;;
40515;SDS011;26216;53.724;9.898;2022-08-03T03:21:06;2.60;;;2.30;;
40515;SDS011;26216;53.724;9.898;2022-08-03T03:23:37;2.58;;;2.20;;
40515;SDS011;26216;53.724;9.898;2022-08-03T03:26:05;2.83;;;2.28;;
40515;SDS011;26216;53.724;9.898;2022-08-03T03:28:32;2.17;;;1.88;;
40515;SDS011;26216;53.724;9.898;2022-08-03T03:31:01;2.35;;;1.98;;
40515;SDS011;26216;53.724;9.898;2022-08-03T03:33:29;2.63;;;2.10;;
40515;SDS011;26216;53.724;9.898;2022-08-03T03:35:56;2.38;;;2.08;;
40515;SDS011;26216;53.724;9.898;2022-08-03T03:38:22;2.83;;;1.90;;
40515;SDS011;26216;53.724;9.898;2022-08-03T03:40:48;2.42;;;2.22;;
40515;SDS011;26216;53.724;9.898;2022-08-03T03:43:14;2.17;;;1.90;;
40515;SDS011;26216;53.724;9.898;2022-08-03T03:45:42;2.55;;;2.10;;
40515;SDS011;26216;53.724;9.898;2022-08-03T03:48:09;3.15;;;2.40;;
40515;SDS011;26216;53.724;9.898;2022-08-03T03:50:36;3.08;;;2.03;;
40515;SDS011;26216;53.724;9.898;2022-08-03T03:53:07;2.95;;;2.20;;
40515;SDS011;26216;53.724;9.898;2022-08-03T03:55:34;1.90;;;1.70;;
40515;SDS011;26216;53.724;9.898;2022-08-03T03:58:04;2.80;;;2.33;;
40515;SDS011;26216;53.724;9.898;2022-08-03T04:00:31;2.33;;;1.90;;
40515;SDS011;26216;53.724;9.898;2022-08-03T04:02:58;2.45;;;2.00;;
40515;SDS011;26216;53.724;9.898;2022-08-03T04:05:24;2.45;;;2.10;;
40515;SDS011;26216;53.724;9.898;2022-08-03T04:08:09;2.47;;;2.15;;
40515;SDS011;26216;53.724;9.898;2022-08-03T04:13:42;2.78;;;2.15;;
40515;SDS011;26216;53.724;9.898;2022-08-03T04:16:21;2.05;;;1.73;;
40515;SDS011;26216;53.724;9.898;2022-08-03T04:18:54;2.95;;;2.10;;
40515;SDS011;26216;53.724;9.898;2022-08-03T04:21:24;2.28;;;2.00;;
40515;SDS011;26216;53.724;9.898;2022-08-03T04:23:54;2.55;;;1.98;;
40515;SDS011;26216;53.724;9.898;2022-08-03T04:26:26;3.17;;;2.17;;
40515;SDS011;26216;53.724;9.898;2022-08-03T04:28:55;2.42;;;1.90;;
40515;SDS011;26216;53.724;9.898;2022-08-03T04:31:23;2.42;;;2.20;;
40515;SDS011;26216;53.724;9.898;2022-08-03T04:33:51;3.83;;;2.22;;
40515;SDS011;26216;53.724;9.898;2022-08-03T04:36:20;2.70;;;2.10;;
40515;SDS011;26216;53.724;9.898;2022-08-03T04:41:56;2.90;;;2.08;;
40515;SDS011;26216;53.724;9.898;2022-08-03T04:44:24;2.25;;;2.05;;
40515;SDS011;26216;53.724;9.898;2022-08-03T04:46:52;2.25;;;2.05;;
40515;SDS011;26216;53.724;9.898;2022-08-03T04:49:20;2.63;;;1.92;;
40515;SDS011;26216;53.724;9.898;2022-08-03T04:51:47;2.97;;;2.17;;
40515;SDS011;26216;53.724;9.898;2022-08-03T04:54:14;2.45;;;1.90;;
40515;SDS011;26216;53.724;9.898;2022-08-03T04:56:40;1.95;;;1.75;;
40515;SDS011;26216;53.724;9.898;2022-08-03T04:59:07;2.30;;;2.10;;
40515;SDS011;26216;53.724;9.898;2022-08-03T05:01:34;2.47;;;2.08;;
40515;SDS011;26216;53.724;9.898;2022-08-03T05:04:00;2.33;;;2.13;;
40515;SDS011;26216;53.724;9.898;2022-08-03T05:06:27;2.22;;;2.03;;
40515;SDS011;26216;53.724;9.898;2022-08-03T05:08:52;2.28;;;2.03;;
40515;SDS011;26216;53.724;9.898;2022-08-03T05:11:19;2.70;;;2.10;;
40515;SDS011;26216;53.724;9.898;2022-08-03T05:13:46;2.78;;;2.38;;
40515;SDS011;26216;53.724;9.898;2022-08-03T05:16:12;2.72;;;1.80;;
40515;SDS011;26216;53.724;9.898;2022-08-03T05:18:41;2.20;;;2.00;;
40515;SDS011;26216;53.724;9.898;2022-08-03T05:21:08;3.08;;;1.90;;
40515;SDS011;26216;53.724;9.898;2022-08-03T05:23:35;2.15;;;1.95;;
40515;SDS011;26216;53.724;9.898;2022-08-03T05:26:02;2.38;;;2.00;;
40515;SDS011;26216;53.724;9.898;2022-08-03T05:28:28;2.90;;;2.50;;
40515;SDS011;26216;53.724;9.898;2022-08-03T05:30:53;2.10;;;1.90;;
40515;SDS011;26216;53.724;9.898;2022-08-03T05:33:19;2.28;;;2.05;;
40515;SDS011;26216;53.724;9.898;2022-08-03T05:35:45;2.50;;;2.10;;
40515;SDS011;26216;53.724;9.898;2022-08-03T05:38:11;2.70;;;2.30;;
40515;SDS011;26216;53.724;9.898;2022-08-03T05:40:37;2.60;;;1.88;;
40515;SDS011;26216;53.724;9.898;2022-08-03T05:43:03;2.70;;;2.05;;
40515;SDS011;26216;53.724;9.898;2022-08-03T05:45:29;2.30;;;2.10;;
40515;SDS011;26216;53.724;9.898;2022-08-03T05:47:54;2.40;;;2.20;;
40515;SDS011;26216;53.724;9.898;2022-08-03T05:50:20;2.15;;;1.95;;
40515;SDS011;26216;53.724;9.898;2022-08-03T05:52:46;3.50;;;2.10;;
40515;SDS011;26216;53.724;9.898;2022-08-03T05:55:12;2.50;;;2.05;;
40515;SDS011;26216;53.724;9.898;2022-08-03T05:57:39;2.28;;;1.98;;
40515;SDS011;26216;53.724;9.898;2022-08-03T06:00:09;2.25;;;1.92;;
40515;SDS011;26216;53.724;9.898;2022-08-03T06:02:36;2.50;;;1.93;;
40515;SDS011;26216;53.724;9.898;2022-08-03T06:05:02;2.80;;;2.35;;
40515;SDS011;26216;53.724;9.898;2022-08-03T06:07:28;1.90;;;1.80;;
40515;SDS011;26216;53.724;9.898;2022-08-03T06:09:55;2.33;;;2.10;;
40515;SDS011;26216;53.724;9.898;2022-08-03T06:12:20;3.15;;;2.20;;
40515;SDS011;26216;53.724;9.898;2022-08-03T06:14:46;2.60;;;2.10;;
40515;SDS011;26216;53.724;9.898;2022-08-03T06:17:12;2.63;;;2.03;;
40515;SDS011;26216;53.724;9.898;2022-08-03T06:19:38;2.28;;;1.83;;
40515;SDS011;26216;53.724;9.898;2022-08-03T06:22:04;3.05;;;2.38;;
40515;SDS011;26216;53.724;9.898;2022-08-03T06:24:30;2.22;;;2.03;;
40515;SDS011;26216;53.724;9.898;2022-08-03T06:26:57;2.38;;;2.17;;
40515;SDS011;26216;53.724;9.898;2022-08-03T06:29:23;2.63;;;2.10;;
40515;SDS011;26216;53.724;9.898;2022-08-03T06:31:49;2.20;;;1.95;;
40515;SDS011;26216;53.724;9.898;2022-08-03T06:34:14;2.17;;;1.95;;
40515;SDS011;26216;53.724;9.898;2022-08-03T06:36:40;2.00;;;1.77;;
40515;SDS011;26216;53.724;9.898;2022-08-03T06:39:06;2.65;;;2.05;;
40515;SDS011;26216;53.724;9.898;2022-08-03T06:41:32;1.73;;;1.63;;
40515;SDS011;26216;53.724;9.898;2022-08-03T06:43:58;2.58;;;1.95;;
40515;SDS011;26216;53.724;9.898;2022-08-03T06:46:24;2.40;;;1.50;;
40515;SDS011;26216;53.724;9.898;2022-08-03T06:48:50;2.13;;;1.70;;
40515;SDS011;26216;53.724;9.898;2022-08-03T06:51:16;1.90;;;1.52;;
40515;SDS011;26216;53.724;9.898;2022-08-03T06:53:42;2.28;;;1.50;;
40515;SDS011;26216;53.724;9.898;2022-08-03T06:56:08;1.75;;;1.25;;
40515;SDS011;26216;53.724;9.898;2022-08-03T06:58:35;1.90;;;1.60;;
40515;SDS011;26216;53.724;9.898;2022-08-03T07:01:01;2.55;;;1.77;;
40515;SDS011;26216;53.724;9.898;2022-08-03T07:03:26;2.20;;;1.50;;
40515;SDS011;26216;53.724;9.898;2022-08-03T07:05:52;1.67;;;1.20;;
40515;SDS011;26216;53.724;9.898;2022-08-03T07:08:18;2.22;;;1.52;;
40515;SDS011;26216;53.724;9.898;2022-08-03T07:10:45;2.03;;;1.33;;
40515;SDS011;26216;53.724;9.898;2022-08-03T07:13:10;2.15;;;1.30;;
40515;SDS011;26216;53.724;9.898;2022-08-03T07:15:36;2.00;;;1.40;;
40515;SDS011;26216;53.724;9.898;2022-08-03T07:18:04;2.10;;;1.63;;
40515;SDS011;26216;53.724;9.898;2022-08-03T07:20:31;1.33;;;1.10;;
40515;SDS011;26216;53.724;9.898;2022-08-03T07:22:57;1.40;;;1.30;;
40515;SDS011;26216;53.724;9.898;2022-08-03T07:25:23;1.98;;;1.42;;
40515;SDS011;26216;53.724;9.898;2022-08-03T07:27:49;1.58;;;1.38;;
40515;SDS011;26216;53.724;9.898;2022-08-03T07:30:15;2.00;;;1.23;;
40515;SDS011;26216;53.724;9.898;2022-08-03T07:32:41;4.70;;;1.70;;
40515;SDS011;26216;53.724;9.898;2022-08-03T07:35:08;2.15;;;1.40;;
40515;SDS011;26216;53.724;9.898;2022-08-03T07:37:35;2.50;;;1.40;;
40515;SDS011;26216;53.724;9.898;2022-08-03T07:40:02;1.60;;;1.40;;
40515;SDS011;26216;53.724;9.898;2022-08-03T07:42:29;2.05;;;1.20;;
40515;SDS011;26216;53.724;9.898;2022-08-03T07:44:55;1.67;;;1.05;;
40515;SDS011;26216;53.724;9.898;2022-08-03T07:47:22;1.65;;;1.30;;
40515;SDS011;26216;53.724;9.898;2022-08-03T07:49:50;1.40;;;1.05;;
40515;SDS011;26216;53.724;9.898;2022-08-03T07:52:17;1.70;;;1.23;;
40515;SDS011;26216;53.724;9.898;2022-08-03T07:55:02;1.45;;;1.25;;
40515;SDS011;26216;53.724;9.898;2022-08-03T07:57:30;1.38;;;1.15;;
40515;SDS011;26216;53.724;9.898;2022-08-03T07:59:56;1.50;;;1.15;;
40515;SDS011;26216;53.724;9.898;2022-08-03T08:02:22;2.30;;;1.42;;
40515;SDS011;26216;53.724;9.898;2022-08-03T08:04:49;1.77;;;1.35;;
40515;SDS011;26216;53.724;9.898;2022-08-03T08:07:15;2.70;;;1.67;;
40515;SDS011;26216;53.724;9.898;2022-08-03T08:09:41;1.58;;;1.45;;
40515;SDS011;26216;53.724;9.898;2022-08-03T08:12:07;3.15;;;2.00;;
40515;SDS011;26216;53.724;9.898;2022-08-03T08:14:34;2.67;;;1.70;;
40515;SDS011;26216;53.724;9.898;2022-08-03T08:17:00;1.92;;;1.60;;
40515;SDS011;26216;53.724;9.898;2022-08-03T08:19:26;2.30;;;1.75;;
40515;SDS011;26216;53.724;9.898;2022-08-03T08:21:52;2.75;;;1.80;;
40515;SDS011;26216;53.724;9.898;2022-08-03T08:24:18;2.45;;;1.70;;
40515;SDS011;26216;53.724;9.898;2022-08-03T08:26:44;1.98;;;1.35;;
40515;SDS011;26216;53.724;9.898;2022-08-03T08:29:10;1.83;;;1.33;;
40515;SDS011;26216;53.724;9.898;2022-08-03T08:31:36;2.08;;;1.33;;
40515;SDS011;26216;53.724;9.898;2022-08-03T08:34:02;2.65;;;2.00;;
40515;SDS011;26216;53.724;9.898;2022-08-03T08:36:33;2.30;;;1.60;;
40515;SDS011;26216;53.724;9.898;2022-08-03T08:38:59;4.22;;;1.83;;
40515;SDS011;26216;53.724;9.898;2022-08-03T08:41:25;1.73;;;1.60;;
40515;SDS011;26216;53.724;9.898;2022-08-03T08:43:52;2.60;;;1.75;;
40515;SDS011;26216;53.724;9.898;2022-08-03T08:46:18;2.10;;;1.52;;
40515;SDS011;26216;53.724;9.898;2022-08-03T08:48:45;2.15;;;1.50;;
40515;SDS011;26216;53.724;9.898;2022-08-03T08:51:13;2.13;;;1.40;;
40515;SDS011;26216;53.724;9.898;2022-08-03T08:53:43;3.33;;;1.60;;
40515;SDS011;26216;53.724;9.898;2022-08-03T08:56:13;2.95;;;1.60;;
40515;SDS011;26216;53.724;9.898;2022-08-03T08:58:43;3.65;;;1.80;;
40515;SDS011;26216;53.724;9.898;2022-08-03T09:01:13;1.80;;;1.23;;
40515;SDS011;26216;53.724;9.898;2022-08-03T09:03:39;2.60;;;1.48;;
40515;SDS011;26216;53.724;9.898;2022-08-03T09:06:05;1.50;;;1.20;;
40515;SDS011;26216;53.724;9.898;2022-08-03T09:08:31;3.05;;;1.20;;
40515;SDS011;26216;53.724;9.898;2022-08-03T09:10:58;2.03;;;1.40;;
40515;SDS011;26216;53.724;9.898;2022-08-03T09:13:24;2.58;;;1.58;;
40515;SDS011;26216;53.724;9.898;2022-08-03T09:18:36;3.35;;;1.65;;
40515;SDS011;26216;53.724;9.898;2022-08-03T09:23:46;5.75;;;1.50;;
40515;SDS011;26216;53.724;9.898;2022-08-03T09:26:23;2.70;;;1.50;;
40515;SDS011;26216;53.724;9.898;2022-08-03T09:31:47;2.08;;;1.20;;
40515;SDS011;26216;53.724;9.898;2022-08-03T09:34:13;2.42;;;1.40;;
40515;SDS011;26216;53.724;9.898;2022-08-03T09:39:09;2.00;;;1.40;;
40515;SDS011;26216;53.724;9.898;2022-08-03T09:41:39;2.83;;;1.27;;
40515;SDS011;26216;53.724;9.898;2022-08-03T09:44:07;2.78;;;1.50;;
40515;SDS011;26216;53.724;9.898;2022-08-03T09:46:46;1.70;;;1.20;;
40515;SDS011;26216;53.724;9.898;2022-08-03T09:49:16;3.22;;;1.40;;
40515;SDS011;26216;53.724;9.898;2022-08-03T09:51:42;2.97;;;1.58;;
40515;SDS011;26216;53.724;9.898;2022-08-03T09:54:08;3.80;;;1.60;;
40515;SDS011;26216;53.724;9.898;2022-08-03T09:56:44;2.45;;;1.40;;
40515;SDS011;26216;53.724;9.898;2022-08-03T09:59:12;2.10;;;1.35;;
40515;SDS011;26216;53.724;9.898;2022-08-03T10:01:47;2.35;;;1.42;;
40515;SDS011;26216;53.724;9.898;2022-08-03T10:04:14;2.72;;;1.63;;
40515;SDS011;26216;53.724;9.898;2022-08-03T10:06:44;2.47;;;1.55;;
40515;SDS011;26216;53.724;9.898;2022-08-03T10:09:28;3.15;;;1.30;;
40515;SDS011;26216;53.724;9.898;2022-08-03T10:11:54;2.50;;;1.45;;
40515;SDS011;26216;53.724;9.898;2022-08-03T10:14:21;2.30;;;1.25;;
40515;SDS011;26216;53.724;9.898;2022-08-03T10:16:48;3.35;;;1.48;;
40515;SDS011;26216;53.724;9.898;2022-08-03T10:19:14;2.40;;;1.30;;
40515;SDS011;26216;53.724;9.898;2022-08-03T10:21:45;2.40;;;1.20;;
40515;SDS011;26216;53.724;9.898;2022-08-03T10:24:16;2.33;;;1.65;;
40515;SDS011;26216;53.724;9.898;2022-08-03T10:26:45;3.08;;;1.60;;
40515;SDS011;26216;53.724;9.898;2022-08-03T10:29:15;1.77;;;1.20;;
40515;SDS011;26216;53.724;9.898;2022-08-03T10:31:46;1.85;;;1.20;;
40515;SDS011;26216;53.724;9.898;2022-08-03T10:34:22;4.65;;;1.42;;
40515;SDS011;26216;53.724;9.898;2022-08-03T10:36:49;2.88;;;1.27;;
40515;SDS011;26216;53.724;9.898;2022-08-03T10:39:21;2.42;;;1.38;;
40515;SDS011;26216;53.724;9.898;2022-08-03T10:41:49;2.95;;;1.42;;
40515;SDS011;26216;53.724;9.898;2022-08-03T10:44:17;1.80;;;1.25;;
40515;SDS011;26216;53.724;9.898;2022-08-03T10:46:44;2.42;;;1.33;;
40515;SDS011;26216;53.724;9.898;2022-08-03T10:49:16;1.73;;;1.00;;
40515;SDS011;26216;53.724;9.898;2022-08-03T10:57:46;2.80;;;1.35;;
40515;SDS011;26216;53.724;9.898;2022-08-03T11:00:18;4.28;;;1.45;;
40515;SDS011;26216;53.724;9.898;2022-08-03T11:05:32;2.63;;;1.17;;
40515;SDS011;26216;53.724;9.898;2022-08-03T11:10:55;1.98;;;1.20;;
40515;SDS011;26216;53.724;9.898;2022-08-03T11:19:22;2.78;;;0.95;;
40515;SDS011;26216;53.724;9.898;2022-08-03T11:22:11;2.58;;;1.02;;
40515;SDS011;26216;53.724;9.898;2022-08-03T11:30:00;2.10;;;1.20;;
40515;SDS011;26216;53.724;9.898;2022-08-03T11:35:12;1.67;;;1.02;;
40515;SDS011;26216;53.724;9.898;2022-08-03T11:45:58;3.13;;;1.10;;
40515;SDS011;26216;53.724;9.898;2022-08-03T11:48:26;1.90;;;0.98;;
40515;SDS011;26216;53.724;9.898;2022-08-03T11:51:04;1.67;;;0.90;;
40515;SDS011;26216;53.724;9.898;2022-08-03T11:53:32;6.45;;;1.10;;
40515;SDS011;26216;53.724;9.898;2022-08-03T11:55:59;3.78;;;1.27;;
40515;SDS011;26216;53.724;9.898;2022-08-03T11:58:26;2.15;;;1.02;;
40515;SDS011;26216;53.724;9.898;2022-08-03T12:00:56;3.08;;;1.10;;
40515;SDS011;26216;53.724;9.898;2022-08-03T12:03:32;4.70;;;1.20;;
40515;SDS011;26216;53.724;9.898;2022-08-03T12:05:59;3.35;;;1.83;;
40515;SDS011;26216;53.724;9.898;2022-08-03T12:10:52;1.98;;;1.00;;
40515;SDS011;26216;53.724;9.898;2022-08-03T12:13:20;3.30;;;1.38;;
40515;SDS011;26216;53.724;9.898;2022-08-03T12:15:51;3.00;;;1.50;;
40515;SDS011;26216;53.724;9.898;2022-08-03T12:18:18;1.48;;;0.85;;
40515;SDS011;26216;53.724;9.898;2022-08-03T12:20:45;6.70;;;1.60;;
40515;SDS011;26216;53.724;9.898;2022-08-03T12:23:12;3.13;;;1.30;;
40515;SDS011;26216;53.724;9.898;2022-08-03T12:25:39;6.47;;;1.40;;
40515;SDS011;26216;53.724;9.898;2022-08-03T12:30:34;1.95;;;1.15;;
40515;SDS011;26216;53.724;9.898;2022-08-03T12:33:14;1.88;;;0.95;;
40515;SDS011;26216;53.724;9.898;2022-08-03T12:35:41;3.27;;;1.47;;
40515;SDS011;26216;53.724;9.898;2022-08-03T12:38:07;4.38;;;1.60;;
40515;SDS011;26216;53.724;9.898;2022-08-03T12:40:34;4.13;;;1.77;;
40515;SDS011;26216;53.724;9.898;2022-08-03T12:43:00;3.33;;;1.63;;
40515;SDS011;26216;53.724;9.898;2022-08-03T12:45:34;2.72;;;1.30;;
40515;SDS011;26216;53.724;9.898;2022-08-03T12:48:01;3.15;;;1.10;;
40515;SDS011;26216;53.724;9.898;2022-08-03T12:50:29;3.08;;;1.17;;
40515;SDS011;26216;53.724;9.898;2022-08-03T12:52:57;4.50;;;1.30;;
40515;SDS011;26216;53.724;9.898;2022-08-03T12:55:25;3.70;;;1.35;;
40515;SDS011;26216;53.724;9.898;2022-08-03T12:58:04;5.53;;;1.58;;
40515;SDS011;26216;53.724;9.898;2022-08-03T13:00:32;4.35;;;1.42;;
40515;SDS011;26216;53.724;9.898;2022-08-03T13:05:42;2.70;;;1.38;;
40515;SDS011;26216;53.724;9.898;2022-08-03T13:08:22;3.03;;;1.60;;
40515;SDS011;26216;53.724;9.898;2022-08-03T13:10:49;4.03;;;1.38;;
40515;SDS011;26216;53.724;9.898;2022-08-03T13:13:16;2.60;;;1.23;;
40515;SDS011;26216;53.724;9.898;2022-08-03T13:15:42;6.85;;;1.35;;
40515;SDS011;26216;53.724;9.898;2022-08-03T13:18:08;4.43;;;1.50;;
40515;SDS011;26216;53.724;9.898;2022-08-03T13:20:34;3.97;;;1.58;;
40515;SDS011;26216;53.724;9.898;2022-08-03T13:23:00;4.32;;;1.70;;
40515;SDS011;26216;53.724;9.898;2022-08-03T13:25:26;4.75;;;1.30;;
40515;SDS011;26216;53.724;9.898;2022-08-03T13:27:52;1.83;;;1.10;;
40515;SDS011;26216;53.724;9.898;2022-08-03T13:30:18;4.88;;;1.63;;
40515;SDS011;26216;53.724;9.898;2022-08-03T13:32:44;3.35;;;1.23;;
40515;SDS011;26216;53.724;9.898;2022-08-03T13:35:10;6.90;;;1.70;;
40515;SDS011;26216;53.724;9.898;2022-08-03T13:37:36;3.83;;;1.60;;
40515;SDS011;26216;53.724;9.898;2022-08-03T13:40:03;4.38;;;1.42;;
40515;SDS011;26216;53.724;9.898;2022-08-03T13:42:31;2.45;;;1.42;;
40515;SDS011;26216;53.724;9.898;2022-08-03T13:44:58;2.78;;;1.10;;
40515;SDS011;26216;53.724;9.898;2022-08-03T13:47:25;3.10;;;1.20;;
40515;SDS011;26216;53.724;9.898;2022-08-03T13:49:52;1.75;;;1.30;;
40515;SDS011;26216;53.724;9.898;2022-08-03T13:52:18;2.63;;;0.90;;
40515;SDS011;26216;53.724;9.898;2022-08-03T13:54:44;1.98;;;1.23;;
40515;SDS011;26216;53.724;9.898;2022-08-03T13:57:13;3.35;;;1.30;;
40515;SDS011;26216;53.724;9.898;2022-08-03T13:59:39;2.72;;;1.20;;
40515;SDS011;26216;53.724;9.898;2022-08-03T14:02:08;2.33;;;1.10;;
40515;SDS011;26216;53.724;9.898;2022-08-03T14:04:34;1.23;;;0.80;;
40515;SDS011;26216;53.724;9.898;2022-08-03T14:07:00;3.50;;;1.35;;
40515;SDS011;26216;53.724;9.898;2022-08-03T14:09:26;2.40;;;1.10;;
40515;SDS011;26216;53.724;9.898;2022-08-03T14:11:54;2.20;;;0.90;;
40515;SDS011;26216;53.724;9.898;2022-08-03T14:14:20;1.98;;;1.15;;
40515;SDS011;26216;53.724;9.898;2022-08-03T14:16:46;1.70;;;1.13;;
40515;SDS011;26216;53.724;9.898;2022-08-03T14:19:12;2.50;;;1.10;;
40515;SDS011;26216;53.724;9.898;2022-08-03T14:21:39;3.10;;;0.93;;
40515;SDS011;26216;53.724;9.898;2022-08-03T14:24:08;4.15;;;1.50;;
40515;SDS011;26216;53.724;9.898;2022-08-03T14:26:34;2.95;;;1.30;;
40515;SDS011;26216;53.724;9.898;2022-08-03T14:29:02;3.17;;;1.25;;
40515;SDS011;26216;53.724;9.898;2022-08-03T14:31:32;3.72;;;1.45;;
40515;SDS011;26216;53.724;9.898;2022-08-03T14:34:00;3.63;;;1.23;;
40515;SDS011;26216;53.724;9.898;2022-08-03T14:36:26;3.78;;;1.48;;
40515;SDS011;26216;53.724;9.898;2022-08-03T14:38:55;2.25;;;1.13;;
40515;SDS011;26216;53.724;9.898;2022-08-03T14:41:22;4.07;;;1.60;;
40515;SDS011;26216;53.724;9.898;2022-08-03T14:43:48;3.13;;;1.63;;
40515;SDS011;26216;53.724;9.898;2022-08-03T14:46:14;2.95;;;1.40;;
40515;SDS011;26216;53.724;9.898;2022-08-03T14:48:39;3.35;;;1.15;;
40515;SDS011;26216;53.724;9.898;2022-08-03T14:51:06;2.70;;;1.20;;
40515;SDS011;26216;53.724;9.898;2022-08-03T14:53:32;2.25;;;1.20;;
40515;SDS011;26216;53.724;9.898;2022-08-03T14:55:59;2.60;;;1.20;;
40515;SDS011;26216;53.724;9.898;2022-08-03T14:58:25;3.30;;;1.35;;
40515;SDS011;26216;53.724;9.898;2022-08-03T15:00:51;5.30;;;1.55;;
40515;SDS011;26216;53.724;9.898;2022-08-03T15:03:19;2.80;;;1.33;;
40515;SDS011;26216;53.724;9.898;2022-08-03T15:05:49;2.47;;;1.15;;
40515;SDS011;26216;53.724;9.898;2022-08-03T15:08:20;2.85;;;1.10;;
40515;SDS011;26216;53.724;9.898;2022-08-03T15:10:47;4.38;;;1.40;;
40515;SDS011;26216;53.724;9.898;2022-08-03T15:13:13;1.55;;;1.10;;
40515;SDS011;26216;53.724;9.898;2022-08-03T15:15:39;1.60;;;1.00;;
40515;SDS011;26216;53.724;9.898;2022-08-03T15:18:05;2.65;;;1.30;;
40515;SDS011;26216;53.724;9.898;2022-08-03T15:20:31;2.13;;;1.10;;
40515;SDS011;26216;53.724;9.898;2022-08-03T15:22:57;2.25;;;1.00;;
40515;SDS011;26216;53.724;9.898;2022-08-03T15:25:23;2.13;;;1.00;;
40515;SDS011;26216;53.724;9.898;2022-08-03T15:27:49;3.78;;;1.40;;
40515;SDS011;26216;53.724;9.898;2022-08-03T15:30:16;1.77;;;0.85;;
40515;SDS011;26216;53.724;9.898;2022-08-03T15:32:42;3.30;;;1.13;;
40515;SDS011;26216;53.724;9.898;2022-08-03T15:35:07;3.20;;;1.10;;
40515;SDS011;26216;53.724;9.898;2022-08-03T15:37:33;1.85;;;1.08;;
40515;SDS011;26216;53.724;9.898;2022-08-03T15:39:59;2.08;;;1.15;;
40515;SDS011;26216;53.724;9.898;2022-08-03T15:42:26;2.35;;;1.00;;
40515;SDS011;26216;53.724;9.898;2022-08-03T15:44:55;2.05;;;1.10;;
40515;SDS011;26216;53.724;9.898;2022-08-03T15:47:21;1.85;;;1.00;;
40515;SDS011;26216;53.724;9.898;2022-08-03T15:49:46;1.77;;;1.00;;
40515;SDS011;26216;53.724;9.898;2022-08-03T15:52:12;1.30;;;0.80;;
40515;SDS011;26216;53.724;9.898;2022-08-03T15:54:38;5.13;;;1.63;;
40515;SDS011;26216;53.724;9.898;2022-08-03T15:57:07;3.33;;;1.30;;
40515;SDS011;26216;53.724;9.898;2022-08-03T15:59:33;3.53;;;1.30;;